Time;durP1;ratioP1;P1;durP2;ratioP2;P2;SDS_P1;SDS_P2;PMS_P1;PMS_P2;Temp;Humidity;BMP_temperature;BMP_pressure;BME280_temperature;BME280_humidity;BME280_pressure;Samples;Min_cycle;Max_cycle;Signal;HPM_P1;HPM_P2
2023/11/09 00:01:27;;;;;;;19.40;17.50;;;;;;;1.47;100.00;95740.75;5088471;28;20020;-64
2023/11/09 00:03:53;;;;;;;20.98;18.75;;;;;;;1.46;100.00;95747.66;5083268;28;20021;-64
2023/11/09 00:06:20;;;;;;;22.90;18.63;;;;;;;1.46;100.00;95754.63;5079502;28;20025;-64
2023/11/09 00:08:45;;;;;;;17.30;14.18;;;;;;;1.65;100.00;95741.47;5079781;28;20024;-64
2023/11/09 00:11:11;;;;;;;14.07;12.50;;;;;;;1.73;100.00;95747.03;5086333;28;20115;-64
2023/11/09 00:13:36;;;;;;;15.63;13.23;;;;;;;1.59;100.00;95747.00;5082657;28;20095;-64
2023/11/09 00:16:02;;;;;;;11.70;10.32;;;;;;;1.65;100.00;95741.47;5080811;28;20030;-64
2023/11/09 00:18:28;;;;;;;12.85;9.70;;;;;;;1.72;100.00;95740.19;5080335;28;20021;-64
2023/11/09 00:20:53;;;;;;;17.73;11.88;;;;;;;1.62;100.00;95734.66;5082317;28;20784;-64
2023/11/09 00:23:21;;;;;;;14.98;12.40;;;;;;;1.57;100.00;95742.75;5084085;28;20020;-64
2023/11/09 00:25:47;;;;;;;12.90;11.60;;;;;;;1.53;100.00;95740.38;5079696;28;20033;-64
2023/11/09 00:28:14;;;;;;;13.32;11.85;;;;;;;1.50;100.00;95740.56;5078283;28;20020;-64
2023/11/09 00:30:40;;;;;;;19.17;14.23;;;;;;;1.44;100.00;95726.16;5082479;28;20032;-64
2023/11/09 00:33:05;;;;;;;15.95;13.68;;;;;;;1.40;100.00;95735.03;5083999;28;20084;-64
2023/11/09 00:35:31;;;;;;;16.70;12.85;;;;;;;1.40;100.00;95720.28;5091632;28;20028;-63
2023/11/09 00:37:57;;;;;;;15.90;12.55;;;;;;;1.36;100.00;95712.78;5084667;28;20017;-63
2023/11/09 00:40:23;;;;;;;13.63;12.15;;;;;;;1.31;100.00;95710.44;5084758;28;20070;-64
2023/11/09 00:42:48;;;;;;;14.10;11.07;;;;;;;1.31;100.00;95709.59;5079926;28;20032;-64
2023/11/09 00:45:14;;;;;;;16.05;13.07;;;;;;;1.28;100.00;95708.03;5085326;28;20031;-63
2023/11/09 00:47:40;;;;;;;19.38;13.45;;;;;;;1.26;100.00;95694.31;5083058;28;20445;-64
2023/11/09 00:50:06;;;;;;;18.35;16.13;;;;;;;1.22;100.00;95698.81;5091918;28;20027;-63
2023/11/09 00:52:31;;;;;;;21.50;15.00;;;;;;;1.18;100.00;95691.28;5085488;28;20021;-64
2023/11/09 00:54:58;;;;;;;15.32;13.73;;;;;;;1.16;100.00;95681.00;5081653;28;20100;-64
2023/11/09 00:57:25;;;;;;;12.32;11.10;;;;;;;1.17;100.00;95676.63;5082495;28;20035;-64
2023/11/09 00:59:50;;;;;;;10.32;9.07;;;;;;;1.13;100.00;95683.78;5086253;28;20568;-64
2023/11/09 01:02:16;;;;;;;11.45;10.25;;;;;;;1.14;100.00;95675.88;5088665;28;20051;-64
2023/11/09 01:04:42;;;;;;;9.40;8.35;;;;;;;1.16;100.00;95674.97;5085223;28;20020;-63
2023/11/09 01:07:09;;;;;;;12.20;10.05;;;;;;;1.20;100.00;95682.50;5086005;28;20386;-64
2023/11/09 01:09:37;;;;;;;12.15;10.18;;;;;;;1.22;100.00;95672.88;5094475;28;20024;-64
2023/11/09 01:12:03;;;;;;;11.00;9.90;;;;;;;1.19;100.00;95675.63;5088932;28;20047;-63
2023/11/09 01:14:29;;;;;;;9.85;8.75;;;;;;;1.12;100.00;95682.09;5081592;28;20030;-63
2023/11/09 01:16:54;;;;;;;9.80;8.90;;;;;;;1.06;100.00;95677.22;5089137;28;20469;-64
2023/11/09 01:19:19;;;;;;;9.55;8.45;;;;;;;1.06;100.00;95672.88;5082859;28;20024;-64
2023/11/09 01:21:45;;;;;;;9.52;8.63;;;;;;;1.03;100.00;95669.63;5087335;28;20024;-64
2023/11/09 01:24:11;;;;;;;9.75;8.80;;;;;;;0.98;100.00;95664.69;5081960;28;20020;-64
2023/11/09 01:26:36;;;;;;;8.85;7.75;;;;;;;0.94;100.00;95663.19;5088204;28;20055;-64
2023/11/09 01:29:02;;;;;;;9.48;8.13;;;;;;;0.92;100.00;95649.47;5082694;28;20028;-64
2023/11/09 01:31:27;;;;;;;8.10;6.53;;;;;;;0.89;100.00;95647.03;5085280;28;20089;-64
2023/11/09 01:33:53;;;;;;;9.25;8.43;;;;;;;0.84;100.00;95649.88;5079053;28;20028;-64
2023/11/09 01:36:18;;;;;;;8.15;6.82;;;;;;;1.07;100.00;95633.06;5080136;28;20028;-63
2023/11/09 01:38:44;;;;;;;6.18;5.68;;;;;;;1.09;100.00;95644.19;5088029;28;20031;-63
2023/11/09 01:41:09;;;;;;;7.13;6.32;;;;;;;1.42;100.00;95640.63;5088146;28;20043;-64
2023/11/09 01:43:34;;;;;;;6.25;5.35;;;;;;;1.32;100.00;95629.09;5088157;28;20056;-64
2023/11/09 01:46:01;;;;;;;8.02;5.35;;;;;;;1.39;100.00;95616.63;5085498;28;20043;-63
2023/11/09 01:48:27;;;;;;;6.80;5.80;;;;;;;1.45;100.00;95628.41;5082074;28;20400;-64
2023/11/09 01:50:53;;;;;;;6.38;5.75;;;;;;;1.36;100.00;95633.19;5080801;28;20016;-64
2023/11/09 01:53:19;;;;;;;6.47;5.70;;;;;;;1.37;100.00;95627.06;5079138;28;20633;-63
2023/11/09 01:55:45;;;;;;;6.78;5.22;;;;;;;1.40;100.00;95626.91;5087820;28;20023;-64
2023/11/09 01:58:12;;;;;;;9.57;6.43;;;;;;;1.39;100.00;95616.63;5091421;28;20099;-64
2023/11/09 02:00:38;;;;;;;13.02;7.97;;;;;;;1.35;100.00;95620.31;5092580;28;20017;-64
2023/11/09 02:03:05;;;;;;;13.07;9.40;;;;;;;1.34;100.00;95624.66;5081517;28;20021;-64
2023/11/09 02:05:33;;;;;;;11.73;8.52;;;;;;;1.35;100.00;95621.13;5082207;28;20024;-63
2023/11/09 02:07:58;;;;;;;7.38;4.95;;;;;;;1.47;100.00;95621.38;5083093;28;20028;-64
2023/11/09 02:10:24;;;;;;;5.10;4.60;;;;;;;1.39;100.00;95614.84;5083016;28;20052;-64
2023/11/09 02:12:50;;;;;;;4.05;3.65;;;;;;;1.35;100.00;95613.34;5081759;28;20048;-64
2023/11/09 02:15:15;;;;;;;4.45;3.55;;;;;;;1.38;100.00;95618.38;5081317;28;20048;-63
2023/11/09 02:17:41;;;;;;;3.90;3.50;;;;;;;1.41;100.00;95607.00;5079361;28;20791;-63
2023/11/09 02:20:09;;;;;;;5.22;3.88;;;;;;;1.37;100.00;95608.09;5083200;28;20508;-63
2023/11/09 02:22:37;;;;;;;10.85;6.53;;;;;;;1.37;100.00;95606.31;5089014;28;20031;-64
2023/11/09 02:25:03;;;;;;;4.18;3.78;;;;;;;1.41;100.00;95613.00;5078952;28;20024;-64
2023/11/09 02:27:29;;;;;;;3.90;3.03;;;;;;;1.43;100.00;95605.97;5088428;28;20015;-64
2023/11/09 02:29:54;;;;;;;3.42;3.13;;;;;;;1.43;100.00;95608.56;5081707;28;20083;-64
2023/11/09 02:32:20;;;;;;;3.92;3.50;;;;;;;1.49;100.00;95614.34;5084190;28;20374;-64
2023/11/09 02:34:47;;;;;;;5.63;3.15;;;;;;;1.48;100.00;95590.13;5086481;28;20052;-64
2023/11/09 02:37:13;;;;;;;4.53;3.22;;;;;;;1.47;100.00;95601.44;5082258;28;20127;-64
2023/11/09 02:39:38;;;;;;;2.90;2.70;;;;;;;1.49;100.00;95596.19;5086334;28;20064;-64
2023/11/09 02:42:05;;;;;;;3.63;3.33;;;;;;;1.48;100.00;95597.09;5081826;28;20392;-64
2023/11/09 02:44:30;;;;;;;4.50;4.13;;;;;;;1.45;100.00;95597.28;5084816;28;20017;-65
2023/11/09 02:46:55;;;;;;;6.20;4.10;;;;;;;1.50;100.00;95583.09;5082017;28;20023;-65
2023/11/09 02:49:21;;;;;;;3.80;3.30;;;;;;;1.56;100.00;95587.09;5081033;28;20072;-64
2023/11/09 02:51:46;;;;;;;4.10;2.90;;;;;;;1.84;100.00;95572.50;5091410;28;20088;-64
2023/11/09 02:54:12;;;;;;;2.75;2.55;;;;;;;1.92;100.00;95564.25;5083419;28;20021;-64
2023/11/09 02:56:38;;;;;;;3.00;2.70;;;;;;;1.95;100.00;95564.91;5081264;28;20031;-64
2023/11/09 02:59:04;;;;;;;3.53;2.63;;;;;;;1.98;100.00;95563.88;5092559;28;20103;-64
2023/11/09 03:01:29;;;;;;;2.72;2.53;;;;;;;2.00;100.00;95560.28;5088001;28;20999;-64
2023/11/09 03:03:55;;;;;;;4.85;2.78;;;;;;;2.31;100.00;95562.78;5087326;28;20074;-63
2023/11/09 03:06:21;;;;;;;2.55;2.35;;;;;;;2.48;100.00;95566.91;5082875;28;20154;-64
2023/11/09 03:08:47;;;;;;;2.70;2.45;;;;;;;2.51;100.00;95571.91;5082662;28;20373;-64
2023/11/09 03:11:19;;;;;;;2.35;2.15;;;;;;;2.49;100.00;95575.56;5084766;28;20047;-64
2023/11/09 03:13:45;;;;;;;2.55;2.35;;;;;;;2.45;100.00;95569.72;5089144;28;20025;-64
2023/11/09 03:16:11;;;;;;;3.30;2.20;;;;;;;2.46;100.00;95573.97;5090042;28;20388;-64
2023/11/09 03:18:37;;;;;;;2.53;2.33;;;;;;;2.46;100.00;95573.16;5087604;28;20032;-64
2023/11/09 03:21:02;;;;;;;2.72;2.50;;;;;;;2.44;100.00;95570.63;5085271;28;20035;-64
2023/11/09 03:23:28;;;;;;;5.53;5.05;;;;;;;2.41;100.00;95576.03;5087877;28;20028;-64
2023/11/09 03:25:54;;;;;;;3.72;3.38;;;;;;;2.38;100.00;95574.44;5085027;28;20062;-64
2023/11/09 03:28:19;;;;;;;3.25;2.80;;;;;;;2.37;100.00;95571.97;5086364;28;20509;-64
2023/11/09 03:30:45;;;;;;;2.78;2.58;;;;;;;2.37;100.00;95574.56;5083846;28;20059;-64
2023/11/09 03:33:10;;;;;;;2.20;2.00;;;;;;;2.33;100.00;95576.50;5082482;28;20020;-64
2023/11/09 03:35:36;;;;;;;2.85;2.65;;;;;;;2.50;100.00;95574.63;5088341;28;20031;-63
2023/11/09 03:38:03;;;;;;;2.60;2.40;;;;;;;2.63;100.00;95577.28;5086550;28;20032;-64
2023/11/09 03:40:29;;;;;;;2.50;2.33;;;;;;;2.63;100.00;95595.50;5087558;28;20370;-64
2023/11/09 03:42:54;;;;;;;2.75;2.55;;;;;;;2.62;100.00;95599.84;5085600;28;20055;-64
2023/11/09 03:45:19;;;;;;;3.72;2.63;;;;;;;2.56;100.00;95592.44;5080612;28;20040;-64
2023/11/09 03:47:45;;;;;;;2.50;2.30;;;;;;;2.62;100.00;95584.25;5084334;28;20024;-64
2023/11/09 03:50:11;;;;;;;2.80;2.00;;;;;;;2.66;100.00;95590.09;5084784;28;20043;-64
2023/11/09 03:52:38;;;;;;;2.42;2.22;;;;;;;2.66;100.00;95603.09;5087026;28;20030;-64
2023/11/09 03:55:07;;;;;;;2.45;1.98;;;;;;;2.68;100.00;95604.69;5098832;28;20023;-64
2023/11/09 03:57:35;;;;;;;3.13;2.20;;;;;;;2.71;100.00;95624.44;5079205;28;20028;-64
2023/11/09 04:00:08;;;;;;;2.20;2.10;;;;;;;2.90;100.00;95623.28;5084802;28;20024;-64
2023/11/09 04:02:35;;;;;;;2.25;2.05;;;;;;;2.83;100.00;95628.88;5086729;28;20078;-63
2023/11/09 04:05:01;;;;;;;2.22;2.13;;;;;;;2.88;100.00;95645.97;5086001;28;20038;-64
2023/11/09 04:07:27;;;;;;;2.22;2.08;;;;;;;2.94;100.00;95646.41;5083894;28;20027;-64
2023/11/09 04:09:52;;;;;;;2.42;2.33;;;;;;;2.88;100.00;95646.81;5091535;28;20105;-64
2023/11/09 04:12:18;;;;;;;2.42;2.25;;;;;;;2.91;100.00;95661.38;5086252;28;20103;-64
2023/11/09 04:14:44;;;;;;;2.30;2.20;;;;;;;2.92;100.00;95652.63;5082361;28;20394;-63
2023/11/09 04:17:09;;;;;;;2.17;2.08;;;;;;;2.96;100.00;95657.56;5088544;28;20024;-64
2023/11/09 04:19:34;;;;;;;3.33;3.08;;;;;;;2.91;100.00;95661.38;5088190;28;20063;-64
2023/11/09 04:22:01;;;;;;;2.70;2.50;;;;;;;2.86;100.00;95662.50;5090543;28;20076;-64
2023/11/09 04:24:26;;;;;;;2.75;2.65;;;;;;;2.85;100.00;95655.63;5092801;28;20138;-63
2023/11/09 04:26:53;;;;;;;3.25;2.13;;;;;;;2.92;100.00;95653.47;5083020;28;20032;-64
2023/11/09 04:29:20;;;;;;;2.65;2.35;;;;;;;2.94;100.00;95651.63;5088075;28;20126;-64
2023/11/09 04:31:47;;;;;;;2.00;1.90;;;;;;;2.94;100.00;95666.38;5092329;28;20032;-64
2023/11/09 04:34:14;;;;;;;4.38;4.07;;;;;;;2.92;100.00;95658.69;5079262;28;20024;-64
2023/11/09 04:36:42;;;;;;;2.30;2.10;;;;;;;2.94;100.00;95662.03;5084629;28;20024;-64
2023/11/09 04:39:09;;;;;;;2.47;2.28;;;;;;;3.00;100.00;95664.22;5079629;28;20170;-64
2023/11/09 04:41:35;;;;;;;3.00;2.35;;;;;;;3.04;100.00;95669.25;5085013;28;20480;-64
2023/11/09 04:44:01;;;;;;;2.55;2.40;;;;;;;3.03;100.00;95671.03;5091450;28;20061;-64
2023/11/09 04:46:28;;;;;;;3.30;3.10;;;;;;;3.03;100.00;95673.63;5086203;28;20085;-64
2023/11/09 04:48:55;;;;;;;6.78;3.63;;;;;;;3.01;100.00;95668.50;5078563;28;20027;-64
2023/11/09 04:51:22;;;;;;;4.93;4.53;;;;;;;3.00;100.00;95676.41;5086101;28;20028;-64
2023/11/09 04:53:51;;;;;;;6.07;5.22;;;;;;;3.04;100.00;95671.84;5089272;28;20016;-64
2023/11/09 04:56:32;;;;;;;6.65;4.95;;;;;;;3.06;100.00;95681.22;5084354;28;20028;-64
2023/11/09 05:06:48;;;;;;;4.72;3.72;;;;;;;3.13;100.00;95677.31;5084235;28;20173;-64
2023/11/09 05:07:17;;;;;;;3.10;2.90;;;;;;;3.15;100.00;95692.81;5083605;28;20046;-64
2023/11/09 05:09:46;;;;;;;2.72;2.58;;;;;;;3.19;100.00;95685.66;5089017;28;20098;-64
2023/11/09 05:12:12;;;;;;;2.70;2.50;;;;;;;3.21;100.00;95676.81;5090636;28;20457;-63
2023/11/09 05:14:37;;;;;;;2.30;2.20;;;;;;;3.23;100.00;95694.94;5086709;28;20035;-63
2023/11/09 05:17:03;;;;;;;2.70;2.50;;;;;;;3.23;100.00;95692.34;5090172;28;20429;-64
2023/11/09 05:19:28;;;;;;;3.00;2.80;;;;;;;3.27;100.00;95692.03;5078576;28;20582;-64
2023/11/09 05:21:53;;;;;;;2.45;2.25;;;;;;;3.35;100.00;95691.56;5094317;28;20028;-64
2023/11/09 05:24:19;;;;;;;2.70;2.40;;;;;;;3.38;100.00;95706.97;5073924;28;20028;-64
2023/11/09 05:26:46;;;;;;;2.90;2.50;;;;;;;3.35;100.00;95701.16;5081388;28;20537;-64
2023/11/09 05:29:11;;;;;;;4.57;2.78;;;;;;;3.46;100.00;95693.47;5081140;28;20036;-64
2023/11/09 05:31:38;;;;;;;2.88;2.67;;;;;;;3.33;100.00;95692.59;5087348;28;20027;-64
2023/11/09 05:34:04;;;;;;;7.95;2.97;;;;;;;3.30;100.00;95694.44;5083445;28;20028;-64
2023/11/09 05:36:34;;;;;;;3.88;2.80;;;;;;;3.30;100.00;95688.41;5085449;28;20020;-64
2023/11/09 05:38:59;;;;;;;3.08;2.88;;;;;;;3.29;100.00;95676.34;5086924;28;21035;-65
2023/11/09 05:41:25;;;;;;;2.88;2.47;;;;;;;3.30;100.00;95678.84;5088436;28;20028;-64
2023/11/09 05:43:51;;;;;;;3.63;3.00;;;;;;;3.39;100.00;95667.00;5088199;28;20047;-64
2023/11/09 05:46:19;;;;;;;3.97;3.33;;;;;;;3.38;100.00;95670.53;5101519;28;20020;-64
2023/11/09 05:48:44;;;;;;;3.10;2.67;;;;;;;3.36;100.00;95677.63;5087328;28;20433;-64
2023/11/09 05:51:10;;;;;;;3.42;3.13;;;;;;;3.35;100.00;95670.75;5090657;28;20207;-64
2023/11/09 05:53:35;;;;;;;4.30;3.13;;;;;;;3.39;100.00;95661.78;5080660;28;20429;-64
2023/11/09 05:56:03;;;;;;;4.57;2.60;;;;;;;3.38;100.00;95657.53;5087977;28;20039;-64
2023/11/09 05:58:28;;;;;;;4.80;2.75;;;;;;;3.38;100.00;95644.50;5085560;28;20076;-64
2023/11/09 06:00:54;;;;;;;3.28;2.63;;;;;;;3.44;100.00;95644.13;5082587;28;20037;-64
2023/11/09 06:03:19;;;;;;;3.83;3.42;;;;;;;3.42;100.00;95653.78;5076687;28;20028;-64
2023/11/09 06:05:45;;;;;;;3.05;2.85;;;;;;;3.39;100.00;95667.00;5083595;28;20544;-64
2023/11/09 06:08:10;;;;;;;3.50;3.17;;;;;;;3.41;100.00;95661.72;5081463;28;20101;-63
2023/11/09 06:10:37;;;;;;;4.40;3.03;;;;;;;3.43;100.00;95663.28;5081441;28;20044;-64
2023/11/09 06:13:03;;;;;;;5.38;3.10;;;;;;;3.40;100.00;95683.47;5081900;28;20111;-64
2023/11/09 06:15:29;;;;;;;4.03;3.72;;;;;;;3.37;100.00;95689.69;5087506;28;20107;-64
2023/11/09 06:17:55;;;;;;;2.78;2.58;;;;;;;3.38;100.00;95677.53;5086766;28;20020;-64
2023/11/09 06:20:21;;;;;;;3.70;2.90;;;;;;;3.34;100.00;95681.25;5084576;28;20118;-64
2023/11/09 06:22:49;;;;;;;3.00;2.80;;;;;;;3.32;100.00;95691.75;5092311;28;20031;-64
2023/11/09 06:25:14;;;;;;;6.15;3.35;;;;;;;3.35;100.00;95688.13;5085163;28;20064;-64
2023/11/09 06:27:41;;;;;;;5.38;3.63;;;;;;;3.35;100.00;95668.13;5085570;28;20146;-64
2023/11/09 06:30:07;;;;;;;9.15;5.70;;;;;;;3.36;100.00;95672.41;5087127;28;20107;-64
2023/11/09 06:32:34;;;;;;;8.48;6.15;;;;;;;3.37;100.00;95676.69;5091559;28;20536;-64
2023/11/09 06:35:06;;;;;;;8.60;5.50;;;;;;;3.42;100.00;95677.22;5088131;28;20081;-63
2023/11/09 06:37:34;;;;;;;15.77;12.48;;;;;;;3.46;100.00;95684.84;5086697;28;20089;-64
2023/11/09 06:40:10;;;;;;;8.85;8.05;;;;;;;3.45;100.00;95684.00;5087270;28;20036;-64
2023/11/09 06:42:36;;;;;;;6.85;6.15;;;;;;;3.48;100.00;95690.78;5081612;28;20494;-64
2023/11/09 06:45:01;;;;;;;6.07;5.47;;;;;;;3.45;100.00;95691.81;5085865;28;20114;-63
2023/11/09 06:47:29;;;;;;;7.50;5.20;;;;;;;3.46;100.00;95692.66;5083809;28;20035;-64
2023/11/09 06:49:54;;;;;;;10.02;8.98;;;;;;;3.44;100.00;95698.81;5091052;28;20036;-64
2023/11/09 06:52:19;;;;;;;7.30;6.57;;;;;;;3.43;100.00;95689.31;5089858;28;20036;-63
2023/11/09 06:54:45;;;;;;;7.30;5.22;;;;;;;3.46;100.00;95701.28;5087352;28;20073;-64
2023/11/09 06:57:11;;;;;;;7.05;4.30;;;;;;;3.50;100.00;95713.16;5084142;28;20492;-64
2023/11/09 06:59:37;;;;;;;6.13;4.32;;;;;;;3.54;100.00;95724.22;5089491;28;20025;-63
2023/11/09 07:02:02;;;;;;;8.15;6.50;;;;;;;3.61;100.00;95728.09;5091804;28;20036;-63
2023/11/09 07:04:28;;;;;;;9.75;6.68;;;;;;;3.62;100.00;95729.78;5089434;28;20084;-65
2023/11/09 07:06:53;;;;;;;8.77;7.57;;;;;;;3.65;100.00;95724.41;5080517;28;20671;-64
2023/11/09 07:09:19;;;;;;;8.05;7.38;;;;;;;3.66;100.00;95722.59;5090193;28;20039;-65
2023/11/09 07:11:44;;;;;;;8.07;6.75;;;;;;;3.65;100.00;95727.00;5085848;28;20063;-64
2023/11/09 07:14:15;;;;;;;7.93;5.18;;;;;;;3.67;100.00;95724.28;5084628;28;20024;-63
2023/11/09 07:16:41;;;;;;;7.18;5.05;;;;;;;3.65;100.00;95719.19;5085912;28;20035;-65
2023/11/09 07:19:06;;;;;;;8.07;5.30;;;;;;;3.68;100.00;95732.00;5090171;28;20029;-64
2023/11/09 07:21:32;;;;;;;10.43;7.88;;;;;;;3.78;100.00;95723.59;5086586;28;20490;-64
2023/11/09 07:24:04;;;;;;;7.43;6.40;;;;;;;3.82;100.00;95731.09;5087724;28;20477;-64
2023/11/09 07:26:30;;;;;;;13.25;6.63;;;;;;;3.79;100.00;95727.84;5078392;28;20498;-64
2023/11/09 07:28:55;;;;;;;6.05;5.45;;;;;;;3.80;100.00;95732.13;5081226;28;20024;-64
2023/11/09 07:31:21;;;;;;;5.40;4.88;;;;;;;3.95;100.00;95736.34;5090955;28;20917;-64
2023/11/09 07:33:49;;;;;;;13.00;7.10;;;;;;;4.02;100.00;95736.78;5086240;28;20024;-64
2023/11/09 07:36:16;;;;;;;7.50;5.07;;;;;;;4.01;100.00;95741.16;5083439;28;20028;-64
2023/11/09 07:38:43;;;;;;;6.53;4.82;;;;;;;4.05;100.00;95746.16;5083314;28;20040;-64
2023/11/09 07:41:09;;;;;;;5.30;4.07;;;;;;;4.04;100.00;95741.88;5095157;28;20044;-64
2023/11/09 07:43:34;;;;;;;8.43;3.80;;;;;;;4.07;100.00;95742.53;5088589;28;20054;-64
2023/11/09 07:46:01;;;;;;;9.13;4.32;;;;;;;4.08;100.00;95745.97;5091521;28;20043;-64
2023/11/09 07:48:27;;;;;;;9.30;6.93;;;;;;;4.08;100.00;95751.16;5082797;28;20020;-64
2023/11/09 07:50:53;;;;;;;7.43;6.00;;;;;;;4.09;100.00;95763.25;5082543;28;20039;-64
2023/11/09 07:53:19;;;;;;;10.48;9.38;;;;;;;4.26;100.00;95777.81;5083556;28;20024;-64
2023/11/09 07:55:45;;;;;;;10.10;7.30;;;;;;;4.51;100.00;95800.47;5080218;28;20031;-64
2023/11/09 07:58:10;;;;;;;11.43;9.43;;;;;;;4.30;100.00;95800.94;5085532;28;20020;-64
2023/11/09 08:00:36;;;;;;;9.48;8.57;;;;;;;4.21;100.00;95792.91;5092800;28;20028;-64
2023/11/09 08:03:01;;;;;;;11.25;6.72;;;;;;;4.20;100.00;95796.44;5083568;28;20035;-64
2023/11/09 08:05:29;;;;;;;9.18;8.38;;;;;;;4.17;100.00;95792.28;5085444;28;20063;-64
2023/11/09 08:07:55;;;;;;;9.57;7.15;;;;;;;4.15;100.00;95788.94;5081512;28;20025;-64
2023/11/09 08:10:24;;;;;;;13.52;12.10;;;;;;;4.16;100.00;95785.41;5080457;28;20055;-64
2023/11/09 08:12:49;;;;;;;8.50;7.65;;;;;;;4.12;100.00;95784.75;5085079;28;20381;-64
2023/11/09 08:15:18;;;;;;;8.75;6.95;;;;;;;4.14;100.00;95780.28;5084967;28;20077;-64
2023/11/09 08:17:44;;;;;;;8.82;7.22;;;;;;;4.15;100.00;95768.09;5082237;28;20024;-64
2023/11/09 08:20:13;;;;;;;18.95;9.05;;;;;;;4.12;100.00;95752.66;5082217;28;20035;-63
2023/11/09 08:22:41;;;;;;;8.63;7.65;;;;;;;4.27;100.00;95746.41;5082374;28;20031;-64
2023/11/09 08:25:06;;;;;;;10.10;8.27;;;;;;;4.24;100.00;95746.63;5081169;28;20025;-63
2023/11/09 08:27:32;;;;;;;12.55;10.65;;;;;;;4.25;100.00;95737.88;5080151;28;20081;-63
2023/11/09 08:29:57;;;;;;;14.30;9.48;;;;;;;4.34;100.00;95736.44;5085332;28;20397;-64
2023/11/09 08:32:25;;;;;;;11.35;6.82;;;;;;;4.25;100.00;95743.09;5080878;28;20036;-64
2023/11/09 08:34:52;;;;;;;7.40;5.30;;;;;;;4.20;100.00;95747.78;5084689;28;20092;-64
2023/11/09 08:37:17;;;;;;;11.50;5.75;;;;;;;4.22;100.00;95743.28;5082597;28;20669;-64
2023/11/09 08:39:43;;;;;;;6.82;6.25;;;;;;;4.24;100.00;95744.03;5085741;28;20032;-63
2023/11/09 08:42:09;;;;;;;5.35;4.75;;;;;;;4.29;100.00;95743.72;5083467;28;20063;-63
2023/11/09 08:44:35;;;;;;;7.72;6.90;;;;;;;4.37;100.00;95744.03;5083134;28;20110;-63
2023/11/09 08:47:01;;;;;;;9.52;6.88;;;;;;;4.38;100.00;95737.06;5084993;28;20063;-63
2023/11/09 08:49:27;;;;;;;10.32;7.63;;;;;;;4.41;100.00;95742.88;5068454;28;20024;-64
2023/11/09 08:51:53;;;;;;;9.18;7.70;;;;;;;4.46;100.00;95745.19;5084915;28;20028;-64
2023/11/09 08:54:19;;;;;;;10.85;9.82;;;;;;;4.52;100.00;95736.13;5083299;28;20032;-63
2023/11/09 08:56:44;;;;;;;11.25;10.23;;;;;;;4.55;100.00;95742.00;5090443;28;20034;-64
2023/11/09 08:59:09;;;;;;;12.32;9.80;;;;;;;4.59;100.00;95732.16;5080087;28;20098;-64
2023/11/09 09:01:35;;;;;;;9.23;8.32;;;;;;;4.63;100.00;95710.16;5084594;28;20099;-64
2023/11/09 09:04:00;;;;;;;13.05;11.90;;;;;;;4.74;100.00;95704.19;5081325;28;20403;-63
2023/11/09 09:06:30;;;;;;;12.45;11.20;;;;;;;4.69;100.00;95703.69;5082892;28;20032;-63
2023/11/09 09:08:56;;;;;;;17.58;9.15;;;;;;;4.66;100.00;95703.91;5084257;28;20098;-64
2023/11/09 09:11:22;;;;;;;12.70;9.48;;;;;;;4.61;100.00;95696.38;5084067;28;20085;-63
2023/11/09 09:13:47;;;;;;;14.50;8.10;;;;;;;4.56;100.00;95694.13;5081817;28;21037;-63
2023/11/09 09:16:15;;;;;;;11.07;7.65;;;;;;;4.61;100.00;95695.56;5080142;28;20461;-64
2023/11/09 09:18:41;;;;;;;11.75;8.18;;;;;;;4.61;100.00;95680.75;5081886;28;20036;-63
2023/11/09 09:21:08;;;;;;;12.50;8.48;;;;;;;4.64;100.00;95680.56;5088324;28;20019;-63
2023/11/09 09:23:34;;;;;;;11.90;10.70;;;;;;;4.66;100.00;95677.81;5086037;28;20024;-63
2023/11/09 09:26:00;;;;;;;9.52;6.63;;;;;;;4.68;100.00;95681.16;5075875;28;20021;-63
2023/11/09 09:28:25;;;;;;;8.43;6.57;;;;;;;4.66;100.00;95678.66;5083062;28;20085;-63
2023/11/09 09:30:51;;;;;;;6.50;5.90;;;;;;;4.66;100.00;95672.59;5079671;28;20028;-63
2023/11/09 09:33:17;;;;;;;8.35;7.50;;;;;;;4.66;100.00;95663.03;5081631;28;20032;-63
2023/11/09 09:35:42;;;;;;;8.52;7.47;;;;;;;4.79;100.00;95656.94;5080504;28;20028;-63
2023/11/09 09:38:08;;;;;;;7.55;6.95;;;;;;;4.85;100.00;95654.75;5087469;28;20107;-63
2023/11/09 09:40:36;;;;;;;6.70;6.18;;;;;;;4.94;100.00;95652.41;5081108;28;20039;-63
2023/11/09 09:43:02;;;;;;;7.35;6.60;;;;;;;4.90;100.00;95643.13;5078984;28;20086;-63
2023/11/09 09:45:30;;;;;;;8.40;5.00;;;;;;;4.83;100.00;95638.38;5085353;28;20024;-63
2023/11/09 09:47:59;;;;;;;7.35;6.65;;;;;;;4.80;100.00;95643.81;5082408;28;20029;-63
2023/11/09 09:50:29;;;;;;;7.35;6.75;;;;;;;4.81;100.00;95631.56;5085255;28;20028;-63
2023/11/09 09:52:57;;;;;;;6.72;6.10;;;;;;;4.83;100.00;95627.94;5080040;28;20012;-63
2023/11/09 09:55:24;;;;;;;7.80;6.60;;;;;;;4.84;100.00;95629.59;5081940;28;20657;-63
2023/11/09 09:57:51;;;;;;;7.50;6.18;;;;;;;4.83;100.00;95625.31;5083280;28;20023;-63
2023/11/09 10:00:26;;;;;;;11.80;10.60;;;;;;;4.84;100.00;95623.53;5081118;28;20103;-64
2023/11/09 10:03:00;;;;;;;19.33;13.65;;;;;;;4.87;100.00;95623.34;5082370;28;20409;-64
2023/11/09 10:05:27;;;;;;;6.10;5.60;;;;;;;4.92;100.00;95612.56;5084101;28;20015;-64
2023/11/09 10:08:09;;;;;;;9.23;6.25;;;;;;;4.95;100.00;95613.19;5089495;28;20030;-63
2023/11/09 10:10:37;;;;;;;8.50;6.20;;;;;;;4.95;100.00;95607.13;5076167;28;20055;-63
2023/11/09 10:13:06;;;;;;;9.73;7.75;;;;;;;5.18;100.00;95594.19;5085344;28;20024;-63
2023/11/09 10:15:32;;;;;;;9.55;8.60;;;;;;;5.16;100.00;95582.09;5087039;28;20020;-64
2023/11/09 10:17:59;;;;;;;11.18;7.85;;;;;;;5.15;100.00;95588.25;5083744;28;20101;-63
2023/11/09 10:20:25;;;;;;;11.15;9.48;;;;;;;5.22;100.00;95582.59;5084558;28;20045;-64
2023/11/09 10:22:52;;;;;;;10.60;9.73;;;;;;;5.21;100.00;95579.16;5081876;28;20024;-63
2023/11/09 10:25:18;;;;;;;12.75;8.05;;;;;;;5.21;100.00;95573.94;5085567;28;20032;-63
2023/11/09 10:27:49;;;;;;;7.93;5.97;;;;;;;5.24;100.00;95567.66;5083206;28;20038;-63
2023/11/09 10:30:18;;;;;;;8.98;8.23;;;;;;;5.30;100.00;95564.59;5079413;28;20032;-64
2023/11/09 10:32:44;;;;;;;8.95;8.15;;;;;;;5.33;100.00;95555.72;5077448;28;20144;-63
2023/11/09 10:35:13;;;;;;;7.72;6.93;;;;;;;5.33;100.00;95564.38;5081196;28;20036;-63
2023/11/09 10:37:40;;;;;;;8.88;7.97;;;;;;;5.32;100.00;95554.06;5083602;28;20134;-63
2023/11/09 10:40:12;;;;;;;8.50;7.70;;;;;;;5.31;100.00;95561.03;5086033;28;20056;-63
2023/11/09 10:42:39;;;;;;;12.73;7.43;;;;;;;5.33;100.00;95556.53;5078381;28;20059;-63
2023/11/09 10:45:10;;;;;;;7.97;6.68;;;;;;;5.39;100.00;95547.44;5076286;28;20035;-63
2023/11/09 10:47:40;;;;;;;10.95;9.85;;;;;;;5.43;100.00;95549.72;5082525;28;20074;-63
2023/11/09 10:50:18;;;;;;;12.27;9.90;;;;;;;5.43;100.00;95544.50;5079379;28;20032;-64
2023/11/09 10:52:43;;;;;;;11.50;10.40;;;;;;;5.44;100.00;95535.72;5076154;28;20064;-63
2023/11/09 10:55:12;;;;;;;8.88;7.97;;;;;;;5.44;100.00;95534.84;5085120;28;20055;-63
2023/11/09 10:57:43;;;;;;;11.63;8.90;;;;;;;5.43;100.00;95523.59;5083574;28;20591;-64
2023/11/09 11:00:11;;;;;;;12.52;11.50;;;;;;;5.44;100.00;95517.44;5085725;28;20028;-63
2023/11/09 11:02:52;;;;;;;12.07;10.68;;;;;;;5.43;100.00;95513.16;5083011;28;20033;-63
2023/11/09 11:05:22;;;;;;;11.10;9.55;;;;;;;5.44;100.00;95514.81;5085110;28;20074;-63
2023/11/09 11:07:52;;;;;;;19.20;17.17;;;;;;;5.47;100.00;95515.53;5087907;28;20033;-63
2023/11/09 11:10:20;;;;;;;10.55;9.55;;;;;;;5.50;100.00;95512.69;5080667;28;20048;-63
2023/11/09 11:12:48;;;;;;;12.82;11.63;;;;;;;5.54;100.00;95511.50;5091683;28;20103;-63
2023/11/09 11:15:18;;;;;;;11.35;10.25;;;;;;;5.57;100.00;95511.28;5083710;28;20032;-63
2023/11/09 11:18:01;;;;;;;10.57;9.48;;;;;;;5.58;100.00;95510.31;5081102;28;20024;-63
2023/11/09 11:20:33;;;;;;;11.52;9.80;;;;;;;5.61;100.00;95504.84;5085052;28;20034;-64
2023/11/09 11:23:20;;;;;;;11.07;9.88;;;;;;;5.64;100.00;95496.81;5091509;28;20495;-63
2023/11/09 11:25:59;;;;;;;13.82;12.35;;;;;;;5.72;100.00;95502.28;5078987;28;20024;-64
2023/11/09 11:28:27;;;;;;;11.07;9.52;;;;;;;5.76;100.00;95499.44;5084289;28;20032;-63
2023/11/09 11:30:59;;;;;;;12.48;11.27;;;;;;;5.77;100.00;95498.47;5091812;28;20035;-63
2023/11/09 11:33:24;;;;;;;13.18;9.77;;;;;;;5.76;100.00;95495.06;5083259;28;20031;-63